Time;durP1;ratioP1;P1;durP2;ratioP2;P2;SDS_P1;SDS_P2;PMS_P1;PMS_P2;Temp;Humidity;BMP_temperature;BMP_pressure;BME280_temperature;BME280_humidity;BME280_pressure;Samples;Min_cycle;Max_cycle;Signal;HPM_P1;HPM_P2
2023/02/05 00:00:22;;;;;;;9.68;6.82;;;;;;;3.42;92.16;100124.69;4155127;28;20383;-87
2023/02/05 00:02:25;;;;;;;10.07;7.30;;;;;;;3.42;92.08;100111.78;4149930;28;20199;-86
2023/02/05 00:04:28;;;;;;;12.15;8.23;;;;;;;3.46;92.04;100116.91;4171131;28;20757;-86
2023/02/05 00:06:31;;;;;;;12.20;7.72;;;;;;;3.47;92.83;100113.47;4167965;28;20225;-86
2023/02/05 00:08:36;;;;;;;8.80;7.55;;;;;;;3.49;91.57;100110.91;4135850;28;20622;-86
2023/02/05 00:10:39;;;;;;;12.00;7.95;;;;;;;3.49;93.21;100109.16;4171574;28;20244;-86
2023/02/05 00:12:42;;;;;;;11.88;7.70;;;;;;;3.53;92.49;100110.81;4169230;28;20265;-86
2023/02/05 00:14:45;;;;;;;11.95;8.02;;;;;;;3.54;92.47;100104.81;4158159;28;20234;-86
2023/02/05 00:16:48;;;;;;;14.02;8.00;;;;;;;3.54;92.33;100103.97;4139802;28;20210;-86
2023/02/05 00:18:52;;;;;;;11.65;7.93;;;;;;;3.55;92.66;100109.09;4174612;28;21014;-86
2023/02/05 00:20:55;;;;;;;14.60;8.20;;;;;;;3.57;92.14;100103.94;4171877;28;20222;-86
2023/02/05 00:22:58;;;;;;;13.73;7.97;;;;;;;3.56;91.82;100103.06;4167576;28;20206;-86
2023/02/05 00:25:02;;;;;;;11.63;8.50;;;;;;;3.57;92.28;100099.63;4152383;28;20219;-85
2023/02/05 00:27:06;;;;;;;10.20;7.60;;;;;;;3.62;92.60;100107.31;4148920;28;20698;-85
2023/02/05 00:29:10;;;;;;;13.00;8.32;;;;;;;3.64;92.08;100097.84;4169216;28;20206;-85
2023/02/05 00:31:16;;;;;;;13.02;6.95;;;;;;;3.64;91.80;100105.56;4170005;28;20756;-86
2023/02/05 00:33:21;;;;;;;10.63;7.38;;;;;;;3.66;91.93;100104.72;4170774;28;20269;-86
2023/02/05 00:35:24;;;;;;;10.43;7.22;;;;;;;3.63;92.09;100097.00;4172382;28;20293;-85
2023/02/05 00:37:27;;;;;;;12.10;8.15;;;;;;;3.62;92.04;100097.00;4171406;28;20198;-88
2023/02/05 00:39:31;;;;;;;11.35;7.75;;;;;;;3.63;91.90;100094.41;4159843;28;20294;-87
2023/02/05 00:41:35;;;;;;;11.10;7.35;;;;;;;3.61;92.05;100085.84;4158350;28;20302;-88
2023/02/05 00:43:41;;;;;;;11.38;7.90;;;;;;;3.59;91.57;100092.72;4156963;28;20347;-86
2023/02/05 00:45:44;;;;;;;11.32;8.45;;;;;;;3.64;93.08;100098.72;4135746;28;20210;-87
2023/02/05 00:47:47;;;;;;;13.45;8.02;;;;;;;3.64;91.94;100096.13;4154683;28;20290;-86
2023/02/05 00:49:50;;;;;;;10.60;7.30;;;;;;;3.65;92.98;100091.81;4172887;28;20198;-86
2023/02/05 00:51:53;;;;;;;10.75;7.25;;;;;;;3.64;92.08;100096.13;4174410;28;20670;-86
2023/02/05 00:53:56;;;;;;;13.32;8.60;;;;;;;3.63;91.71;100093.56;4155291;28;20234;-86
2023/02/05 00:55:59;;;;;;;13.25;8.32;;;;;;;3.61;91.08;100084.97;4156669;28;20735;-85
2023/02/05 00:58:04;;;;;;;11.48;8.50;;;;;;;3.59;92.08;100090.13;4173720;28;20220;-86
2023/02/05 01:00:08;;;;;;;10.75;7.90;;;;;;;3.59;90.92;100084.13;4174575;28;20214;-86
2023/02/05 01:02:11;;;;;;;9.88;7.60;;;;;;;3.58;92.50;100092.72;4160947;28;20975;-86
2023/02/05 01:04:14;;;;;;;14.50;8.60;;;;;;;3.59;91.85;100094.44;4141014;28;20295;-86
2023/02/05 01:06:17;;;;;;;11.90;8.63;;;;;;;3.61;92.97;100090.13;4177793;28;20209;-86
2023/02/05 01:08:20;;;;;;;11.63;8.32;;;;;;;3.63;92.16;100088.41;4161732;28;21522;-86
2023/02/05 01:10:25;;;;;;;16.80;9.10;;;;;;;3.62;92.66;100089.28;4160520;28;20205;-86
2023/02/05 01:12:28;;;;;;;14.02;8.70;;;;;;;3.64;92.06;100095.25;4141607;28;20220;-86
2023/02/05 01:14:32;;;;;;;11.15;7.68;;;;;;;3.62;92.01;100087.53;4173125;28;20225;-86
2023/02/05 01:16:36;;;;;;;12.30;8.60;;;;;;;3.63;92.09;100089.25;4140198;28;20707;-86
2023/02/05 01:18:39;;;;;;;10.73;7.95;;;;;;;3.63;92.49;100078.09;4158179;28;20207;-86
2023/02/05 01:20:43;;;;;;;11.82;8.65;;;;;;;3.64;91.48;100077.22;4170349;28;20292;-86
2023/02/05 01:22:46;;;;;;;11.10;8.20;;;;;;;3.66;91.85;100078.06;4152925;28;20785;-86
2023/02/05 01:24:50;;;;;;;11.85;8.90;;;;;;;3.68;92.12;100074.59;4169480;28;20202;-86
2023/02/05 01:26:54;;;;;;;12.02;8.27;;;;;;;3.66;92.12;100068.59;4137406;28;20728;-86
2023/02/05 01:28:57;;;;;;;13.00;8.35;;;;;;;3.65;91.21;100066.03;4151880;28;20210;-86
2023/02/05 01:31:02;;;;;;;12.05;8.63;;;;;;;3.62;91.88;100064.31;4142019;28;20627;-86
2023/02/05 01:33:05;;;;;;;12.93;8.50;;;;;;;3.60;92.56;100067.81;4154357;28;20203;-86
2023/02/05 01:35:09;;;;;;;10.60;8.20;;;;;;;3.62;91.76;100077.22;4171530;28;20213;-86
2023/02/05 01:37:12;;;;;;;10.68;7.80;;;;;;;3.63;92.10;100071.19;4135151;28;20215;-86
2023/02/05 01:39:15;;;;;;;10.88;7.38;;;;;;;3.68;92.28;100068.59;4167411;28;20300;-86
2023/02/05 01:41:18;;;;;;;12.35;8.10;;;;;;;3.70;91.75;100080.59;4154185;28;21315;-86
2023/02/05 01:43:21;;;;;;;10.07;7.82;;;;;;;3.70;91.81;100072.88;4174213;28;20256;-86
2023/02/05 01:46:00;;;;;;;10.05;8.02;;;;;;;3.71;92.25;100071.13;4154589;28;20199;-87
2023/02/05 01:48:07;;;;;;;14.52;9.10;;;;;;;3.70;92.16;100065.13;4153766;28;20199;-86
2023/02/05 01:50:10;;;;;;;15.05;8.98;;;;;;;3.70;91.95;100064.25;4168946;28;20222;-86
2023/02/05 01:52:16;;;;;;;13.00;9.02;;;;;;;3.70;91.53;100064.25;4142882;28;20195;-86
2023/02/05 01:54:20;;;;;;;14.52;9.57;;;;;;;3.70;92.03;100054.81;4157893;28;20745;-86
2023/02/05 01:56:26;;;;;;;12.85;8.63;;;;;;;3.69;92.99;100057.41;4142384;28;20217;-86
2023/02/05 01:58:34;;;;;;;12.63;8.30;;;;;;;3.65;92.77;100048.81;4158024;28;20284;-86
2023/02/05 02:00:37;;;;;;;12.05;8.63;;;;;;;3.67;92.55;100041.94;4174799;28;20218;-86
2023/02/05 02:02:40;;;;;;;13.98;8.43;;;;;;;3.68;92.15;100038.47;4155029;28;20223;-86
2023/02/05 02:04:48;;;;;;;8.38;7.35;;;;;;;3.70;91.62;100041.91;4143759;28;20246;-86
2023/02/05 02:06:51;;;;;;;11.65;8.25;;;;;;;3.68;93.03;100040.22;4155155;28;20677;-86
2023/02/05 02:08:55;;;;;;;9.98;7.35;;;;;;;3.70;92.96;100038.47;4155585;28;20721;-86
2023/02/05 02:11:00;;;;;;;10.20;7.20;;;;;;;3.69;92.17;100035.03;4142527;28;20221;-86
2023/02/05 02:13:03;;;;;;;12.32;7.47;;;;;;;3.66;91.52;100027.31;4159302;28;20245;-86
2023/02/05 02:15:10;;;;;;;11.60;7.80;;;;;;;3.69;92.68;100029.03;4150879;28;20202;-86
2023/02/05 02:17:15;;;;;;;11.88;8.15;;;;;;;3.68;92.79;100033.31;4171047;28;20211;-86
2023/02/05 02:19:23;;;;;;;11.73;7.80;;;;;;;3.69;92.15;100027.28;4142365;28;20200;-86
2023/02/05 02:21:59;;;;;;;10.13;7.78;;;;;;;3.71;91.76;100027.28;4154114;28;20198;-86
2023/02/05 02:24:13;;;;;;;9.02;7.07;;;;;;;3.70;92.34;100021.28;4158648;28;20725;-86
2023/02/05 02:26:28;;;;;;;10.93;8.10;;;;;;;3.69;92.42;100019.56;4140026;28;20215;-86
2023/02/05 02:28:36;;;;;;;9.70;7.22;;;;;;;3.69;91.33;100014.41;4156599;28;20202;-86
2023/02/05 02:30:42;;;;;;;11.60;7.72;;;;;;;3.67;91.28;100013.56;4156221;28;20337;-86
2023/02/05 02:32:50;;;;;;;12.63;7.97;;;;;;;3.67;91.91;100003.25;4172165;28;20260;-86
2023/02/05 02:34:56;;;;;;;11.20;7.53;;;;;;;3.70;93.02;100008.38;4152828;28;20205;-86
2023/02/05 02:37:03;;;;;;;14.00;7.78;;;;;;;3.73;92.15;100013.50;4154542;28;20207;-86
2023/02/05 02:39:11;;;;;;;9.48;6.82;;;;;;;3.74;92.68;100015.19;4154192;28;20321;-86
2023/02/05 02:41:19;;;;;;;10.13;7.57;;;;;;;3.73;92.62;100016.09;4171341;28;20415;-87
2023/02/05 02:43:25;;;;;;;10.77;7.90;;;;;;;3.73;92.85;100018.66;4137141;28;20329;-86
2023/02/05 02:45:34;;;;;;;9.65;8.00;;;;;;;3.72;92.32;100012.63;4137202;28;20210;-87
2023/02/05 02:47:42;;;;;;;12.35;8.93;;;;;;;3.73;92.81;100013.50;4157086;28;20214;-86
2023/02/05 02:49:49;;;;;;;9.82;7.55;;;;;;;3.73;92.13;100008.34;4158133;28;20707;-86
2023/02/05 02:51:53;;;;;;;10.45;7.68;;;;;;;3.78;91.90;100006.56;4153951;28;20185;-86
2023/02/05 02:53:59;;;;;;;10.55;8.35;;;;;;;3.76;91.45;99995.41;4141237;28;20253;-86
2023/02/05 02:56:04;;;;;;;10.75;7.90;;;;;;;3.73;92.09;99990.28;4156459;28;20641;-86
2023/02/05 02:58:14;;;;;;;12.75;8.90;;;;;;;3.71;92.41;99994.59;4155585;28;20559;-86
2023/02/05 03:00:21;;;;;;;10.57;8.13;;;;;;;3.71;92.61;99992.00;4155860;28;20221;-86
2023/02/05 03:02:28;;;;;;;11.05;8.45;;;;;;;3.71;92.67;99988.59;4155724;28;20317;-86
2023/02/05 03:04:35;;;;;;;10.52;7.90;;;;;;;3.70;91.26;99987.75;4156986;28;20206;-86
2023/02/05 03:06:39;;;;;;;8.52;7.15;;;;;;;3.69;91.73;99983.44;4152913;28;20252;-86
2023/02/05 03:08:49;;;;;;;8.68;7.20;;;;;;;3.68;92.35;99984.31;4155719;28;20211;-86
2023/02/05 03:10:56;;;;;;;10.50;7.78;;;;;;;3.67;92.21;99984.31;4153940;28;20324;-86
2023/02/05 03:13:00;;;;;;;11.40;8.07;;;;;;;3.64;91.16;99981.78;4146292;28;20208;-86
2023/02/05 03:15:24;;;;;;;10.30;7.78;;;;;;;3.63;91.49;99993.84;4167541;28;20630;-86
2023/02/05 03:17:29;;;;;;;9.65;7.18;;;;;;;3.60;91.42;99985.28;4168276;28;20210;-86
2023/02/05 03:19:33;;;;;;;12.43;7.93;;;;;;;3.59;91.91;99988.72;4150700;28;20211;-86
2023/02/05 03:21:42;;;;;;;9.48;7.70;;;;;;;3.59;91.62;99992.13;4154695;28;20222;-86
2023/02/05 03:23:45;;;;;;;9.07;7.57;;;;;;;3.59;92.05;99986.13;4151070;28;20237;-86
2023/02/05 03:25:49;;;;;;;8.10;7.00;;;;;;;3.58;92.15;99987.88;4131746;28;20246;-86
2023/02/05 03:27:57;;;;;;;8.13;6.70;;;;;;;3.55;91.24;99993.06;4136207;28;20245;-86
2023/02/05 03:30:05;;;;;;;9.68;6.78;;;;;;;3.53;91.72;99988.78;4147209;28;20207;-87
2023/02/05 03:32:17;;;;;;;9.45;6.45;;;;;;;3.53;92.49;99986.19;4153481;28;20330;-86
2023/02/05 03:34:32;;;;;;;11.32;7.70;;;;;;;3.52;91.02;99989.63;4170102;28;20765;-87
2023/02/05 03:36:41;;;;;;;10.50;7.18;;;;;;;3.54;91.46;99981.03;4168128;28;20225;-86
2023/02/05 03:38:53;;;;;;;12.23;7.63;;;;;;;3.54;92.41;99969.88;4154367;28;20253;-88
2023/02/05 03:40:59;;;;;;;8.05;6.85;;;;;;;3.51;92.46;99965.59;4155207;28;20202;-86
2023/02/05 03:43:12;;;;;;;10.00;7.15;;;;;;;3.50;91.70;99973.34;4141079;28;20704;-86
2023/02/05 03:45:38;;;;;;;9.43;6.70;;;;;;;3.52;91.52;99966.44;4133358;28;20298;-86
2023/02/05 03:47:50;;;;;;;9.35;6.97;;;;;;;3.51;92.04;99960.44;4157090;28;20211;-86
2023/02/05 03:50:01;;;;;;;9.25;7.07;;;;;;;3.48;91.77;99955.31;4158395;28;20296;-86
2023/02/05 03:52:09;;;;;;;9.52;7.07;;;;;;;3.47;91.92;99963.06;4162234;28;20195;-86
2023/02/05 03:54:17;;;;;;;10.82;6.78;;;;;;;3.46;91.38;99962.22;4175022;28;20276;-86
2023/02/05 03:56:24;;;;;;;9.75;7.13;;;;;;;3.45;91.25;99959.66;4174443;28;20212;-86
2023/02/05 03:58:32;;;;;;;9.45;7.35;;;;;;;3.51;91.12;99972.47;4160932;28;20678;-89
2023/02/05 04:00:35;;;;;;;9.90;7.80;;;;;;;3.49;91.30;99964.75;4158017;28;20216;-86
2023/02/05 04:02:38;;;;;;;9.30;7.65;;;;;;;3.49;91.25;99956.19;4158812;28;20572;-86
2023/02/05 04:04:42;;;;;;;9.20;6.72;;;;;;;3.49;91.82;99963.91;4161590;28;20714;-86
2023/02/05 04:06:49;;;;;;;8.00;6.85;;;;;;;3.45;91.81;99957.91;4160230;28;20667;-88
2023/02/05 04:08:53;;;;;;;8.18;7.00;;;;;;;3.47;91.32;99948.47;4161414;28;20253;-87
2023/02/05 04:10:57;;;;;;;11.30;6.85;;;;;;;3.45;91.72;99942.44;4145036;28;20254;-87
2023/02/05 04:13:01;;;;;;;9.30;7.85;;;;;;;3.47;91.55;99945.00;4159201;28;20257;-88
2023/02/05 04:15:07;;;;;;;11.98;9.00;;;;;;;3.44;91.39;99943.34;4141712;28;20200;-87
2023/02/05 04:17:12;;;;;;;11.00;7.90;;;;;;;3.42;92.33;99945.06;4142354;28;20210;-87
2023/02/05 04:19:17;;;;;;;10.35;7.43;;;;;;;3.41;91.72;99945.94;4145042;28;20211;-86
2023/02/05 04:21:20;;;;;;;9.43;7.25;;;;;;;3.40;91.47;99949.38;4152932;28;20564;-87
2023/02/05 04:23:26;;;;;;;9.55;7.93;;;;;;;3.39;91.63;99950.25;4163766;28;20230;-87
2023/02/05 04:25:29;;;;;;;9.85;7.72;;;;;;;3.38;92.43;99945.97;4166698;28;20210;-87
2023/02/05 04:27:35;;;;;;;11.18;7.50;;;;;;;3.38;92.19;99947.69;4143383;28;20838;-87
2023/02/05 04:29:40;;;;;;;10.38;8.15;;;;;;;3.41;91.97;99945.06;4137632;28;20748;-87
2023/02/05 04:31:43;;;;;;;9.23;8.23;;;;;;;3.41;91.99;99942.50;4140852;28;20715;-87
2023/02/05 04:33:47;;;;;;;8.27;7.07;;;;;;;3.42;91.31;99947.63;4141241;28;20294;-87
2023/02/05 04:35:52;;;;;;;9.45;7.20;;;;;;;3.40;91.25;99951.97;4139869;28;20204;-87
2023/02/05 04:37:56;;;;;;;9.15;7.43;;;;;;;3.39;92.01;99957.13;4137113;28;20684;-87
2023/02/05 04:40:00;;;;;;;8.90;7.03;;;;;;;3.38;91.42;99961.44;4156609;28;20304;-87
2023/02/05 04:42:04;;;;;;;7.47;6.45;;;;;;;3.40;91.09;99966.59;4158684;28;20235;-87
2023/02/05 04:44:07;;;;;;;7.25;6.53;;;;;;;3.39;91.43;99959.72;4176876;28;20230;-87
2023/02/05 04:46:10;;;;;;;9.85;6.97;;;;;;;3.37;90.99;99952.00;4171120;28;20219;-87
2023/02/05 04:48:13;;;;;;;7.70;6.55;;;;;;;3.33;91.39;99952.88;4142393;28;20203;-87
2023/02/05 04:50:17;;;;;;;7.78;6.35;;;;;;;3.32;91.19;99948.63;4140290;28;20810;-87
2023/02/05 04:52:20;;;;;;;8.60;7.10;;;;;;;3.31;91.45;99952.06;4152519;28;20261;-87
2023/02/05 04:54:23;;;;;;;10.35;6.93;;;;;;;3.30;91.30;99947.75;4173360;28;20300;-87
2023/02/05 04:56:27;;;;;;;9.35;7.28;;;;;;;3.29;90.79;99948.66;4172108;28;20203;-87
2023/02/05 04:58:30;;;;;;;9.43;6.78;;;;;;;3.29;91.25;99948.66;4154900;28;20211;-86
2023/02/05 05:00:34;;;;;;;10.15;7.35;;;;;;;3.26;91.01;99947.81;4141462;28;20762;-87
2023/02/05 05:02:37;;;;;;;9.32;7.30;;;;;;;3.25;91.38;99942.66;4176632;28;20296;-86
2023/02/05 05:04:41;;;;;;;7.28;6.38;;;;;;;3.22;90.86;99938.41;4174297;28;20218;-88
2023/02/05 05:06:45;;;;;;;10.00;6.13;;;;;;;3.18;90.70;99943.63;4173612;28;20226;-87
2023/02/05 05:08:48;;;;;;;6.72;6.10;;;;;;;3.15;90.80;99941.91;4156493;28;20207;-88
2023/02/05 05:10:51;;;;;;;12.02;6.88;;;;;;;3.15;91.58;99943.63;4156017;28;20210;-87
2023/02/05 05:12:55;;;;;;;7.00;5.85;;;;;;;3.15;90.66;99949.63;4158869;28;20722;-88
2023/02/05 05:14:58;;;;;;;6.32;5.60;;;;;;;3.15;90.67;99956.53;4157599;28;20202;-87
2023/02/05 05:17:01;;;;;;;9.63;6.57;;;;;;;3.15;90.87;99964.25;4158184;28;20203;-87
2023/02/05 05:19:04;;;;;;;8.85;6.60;;;;;;;3.13;90.98;99953.09;4154895;28;20794;-87
2023/02/05 05:21:08;;;;;;;7.18;5.70;;;;;;;3.13;90.79;99951.38;4158819;28;20610;-87
2023/02/05 05:23:11;;;;;;;6.85;6.15;;;;;;;3.13;90.19;99960.81;4155890;28;20203;-87
2023/02/05 05:25:14;;;;;;;7.38;6.43;;;;;;;3.13;90.85;99953.97;4158430;28;20245;-87
2023/02/05 05:27:17;;;;;;;7.07;6.03;;;;;;;3.16;90.96;99950.47;4137143;28;20239;-87
2023/02/05 05:29:22;;;;;;;9.48;7.10;;;;;;;3.15;91.19;99941.06;4159337;28;20690;-87
2023/02/05 05:31:25;;;;;;;6.88;5.97;;;;;;;3.14;91.32;99947.91;4175448;28;20210;-87
2023/02/05 05:33:28;;;;;;;11.10;6.45;;;;;;;3.13;90.92;99941.06;4172862;28;20677;-87
2023/02/05 05:35:31;;;;;;;6.95;5.35;;;;;;;3.12;90.43;99941.94;4140280;28;20440;-87
2023/02/05 05:37:35;;;;;;;7.32;5.50;;;;;;;3.11;91.26;99949.69;4164347;28;20207;-87
2023/02/05 05:44:19;;;;;;;8.45;5.90;;;;;;;3.15;91.54;99957.38;4156684;28;20231;-87
2023/02/05 05:46:25;;;;;;;7.35;5.88;;;;;;;3.19;91.22;99963.34;4158875;28;20321;-87
2023/02/05 05:48:30;;;;;;;6.90;6.20;;;;;;;3.22;90.88;99966.75;4139383;28;20246;-87
2023/02/05 05:50:33;;;;;;;7.70;6.10;;;;;;;3.22;91.26;99958.16;4152090;28;20717;-87
2023/02/05 05:52:37;;;;;;;6.85;5.78;;;;;;;3.18;91.09;99954.75;4155618;28;20203;-87
2023/02/05 05:54:40;;;;;;;7.55;5.78;;;;;;;3.18;91.09;99949.59;4172790;28;20241;-87
2023/02/05 05:56:44;;;;;;;6.53;5.80;;;;;;;3.23;91.67;99949.56;4155757;28;20264;-87
2023/02/05 05:58:47;;;;;;;6.25;5.40;;;;;;;3.22;90.77;99935.84;4155598;28;20241;-87
2023/02/05 06:00:50;;;;;;;7.20;6.50;;;;;;;3.19;90.59;99938.44;4156242;28;20199;-87
2023/02/05 06:02:55;;;;;;;7.03;5.93;;;;;;;3.19;90.89;99927.25;4173190;28;20321;-87
2023/02/05 06:04:58;;;;;;;7.78;6.13;;;;;;;3.18;90.91;99938.47;4172436;28;20269;-87
2023/02/05 06:07:01;;;;;;;6.20;5.30;;;;;;;3.18;91.14;99931.56;4152657;28;20231;-87
2023/02/05 06:09:04;;;;;;;8.13;6.20;;;;;;;3.20;92.36;99926.41;4154749;28;20211;-87
2023/02/05 06:11:07;;;;;;;7.13;5.88;;;;;;;3.24;91.45;99933.25;4159492;28;20229;-87
2023/02/05 06:13:10;;;;;;;6.25;5.60;;;;;;;3.27;91.72;99933.22;4150979;28;20287;-87
2023/02/05 06:15:14;;;;;;;6.97;5.60;;;;;;;3.30;91.40;99936.59;4170391;28;20261;-87
2023/02/05 06:17:17;;;;;;;6.85;5.85;;;;;;;3.31;91.94;99944.31;4152056;28;20212;-87
2023/02/05 06:19:21;;;;;;;7.70;5.82;;;;;;;3.32;91.49;99932.28;4172503;28;20244;-87
2023/02/05 06:21:25;;;;;;;7.45;5.85;;;;;;;3.34;91.27;99925.41;4153102;28;20195;-87
2023/02/05 06:23:28;;;;;;;6.15;5.55;;;;;;;3.33;91.33;99936.56;4169445;28;20210;-87
2023/02/05 06:25:31;;;;;;;7.05;5.10;;;;;;;3.32;91.45;99937.44;4164960;28;20225;-87
2023/02/05 06:27:35;;;;;;;8.60;5.45;;;;;;;3.33;91.83;99937.41;4172895;28;20712;-87
2023/02/05 06:29:38;;;;;;;5.97;5.22;;;;;;;3.34;91.63;99939.13;4142320;28;20210;-87
2023/02/05 06:31:41;;;;;;;7.35;5.88;;;;;;;3.36;91.02;99937.38;4169007;28;20214;-87
2023/02/05 06:33:44;;;;;;;9.60;5.40;;;;;;;3.36;91.35;99939.97;4141810;28;20302;-87
2023/02/05 06:35:49;;;;;;;8.50;6.50;;;;;;;3.35;91.96;99942.56;4153834;28;20728;-87
2023/02/05 06:37:52;;;;;;;7.05;5.55;;;;;;;3.35;91.45;99933.13;4137733;28;20238;-87
2023/02/05 06:39:55;;;;;;;10.73;5.57;;;;;;;3.35;91.44;99938.28;4153482;28;20213;-87
2023/02/05 06:41:59;;;;;;;6.57;5.88;;;;;;;3.39;91.27;99944.25;4164537;28;20293;-87
2023/02/05 06:44:02;;;;;;;6.82;5.20;;;;;;;3.41;91.08;99945.06;4156162;28;20195;-87
2023/02/05 06:46:05;;;;;;;6.88;5.82;;;;;;;3.44;91.26;99943.34;4171509;28;20629;-86
2023/02/05 06:48:09;;;;;;;7.15;5.32;;;;;;;3.42;91.63;99950.22;4168937;28;20237;-87
2023/02/05 06:50:12;;;;;;;8.65;6.05;;;;;;;3.45;91.24;99957.06;4155714;28;20214;-87
2023/02/05 06:52:16;;;;;;;7.43;5.50;;;;;;;3.44;91.77;99960.50;4171004;28;21492;-87
2023/02/05 06:54:20;;;;;;;8.30;5.82;;;;;;;3.46;91.75;99961.38;4170783;28;20218;-87
2023/02/05 06:56:23;;;;;;;8.07;5.68;;;;;;;3.47;92.36;99963.06;4160360;28;20720;-87
2023/02/05 06:58:26;;;;;;;6.75;5.80;;;;;;;3.46;91.67;99957.06;4141020;28;20241;-87
2023/02/05 07:00:29;;;;;;;7.60;5.10;;;;;;;3.50;91.21;99961.31;4171578;28;20217;-87
2023/02/05 07:02:34;;;;;;;6.65;5.30;;;;;;;3.51;91.49;99957.00;4138446;28;20210;-87
2023/02/05 07:04:37;;;;;;;7.43;6.65;;;;;;;3.51;90.96;99960.44;4148964;28;20233;-87
2023/02/05 07:06:40;;;;;;;6.45;5.60;;;;;;;3.52;92.22;99957.00;4139382;28;20813;-87
2023/02/05 07:08:46;;;;;;;7.72;4.82;;;;;;;3.52;91.99;99967.31;4157148;28;20285;-87
2023/02/05 07:10:49;;;;;;;12.57;6.15;;;;;;;3.53;91.77;99973.31;4175144;28;20225;-87
2023/02/05 07:12:52;;;;;;;8.43;6.85;;;;;;;3.56;91.48;99970.69;4137228;28;20208;-87
2023/02/05 07:14:55;;;;;;;8.52;5.85;;;;;;;3.59;91.71;99968.09;4172029;28;20276;-87
2023/02/05 07:16:58;;;;;;;8.15;5.22;;;;;;;3.59;91.53;99968.94;4142936;28;20210;-87
2023/02/05 07:19:01;;;;;;;8.85;5.85;;;;;;;3.62;92.16;99973.22;4154323;28;20285;-87
2023/02/05 07:21:05;;;;;;;15.18;8.45;;;;;;;3.63;92.60;99972.34;4146235;28;20679;-87
2023/02/05 07:23:08;;;;;;;11.73;8.85;;;;;;;3.65;91.69;99974.03;4144483;28;20212;-87
2023/02/05 07:25:13;;;;;;;11.63;7.95;;;;;;;3.68;91.33;99974.00;4159378;28;20235;-87
2023/02/05 07:27:16;;;;;;;6.85;5.65;;;;;;;3.66;92.08;99975.75;4156607;28;20241;-87
2023/02/05 07:29:22;;;;;;;7.47;6.60;;;;;;;3.67;91.14;99972.31;4143472;28;20230;-86
2023/02/05 07:31:25;;;;;;;7.05;6.10;;;;;;;3.65;92.38;99958.53;4142664;28;20215;-87
2023/02/05 07:33:29;;;;;;;6.90;6.20;;;;;;;3.63;93.17;99955.16;4159359;28;20214;-87
2023/02/05 07:35:33;;;;;;;9.15;5.85;;;;;;;3.62;92.28;99947.44;4160573;28;20225;-87
2023/02/05 07:37:38;;;;;;;7.22;6.25;;;;;;;3.63;92.74;99949.13;4154079;28;20212;-85
2023/02/05 07:39:41;;;;;;;7.25;6.50;;;;;;;3.65;92.66;99952.53;4170540;28;20221;-86
2023/02/05 07:41:46;;;;;;;8.43;6.78;;;;;;;3.66;92.19;99947.38;4139511;28;20294;-86
2023/02/05 07:43:57;;;;;;;10.32;6.80;;;;;;;3.65;92.24;99943.06;4142984;28;21128;-87
2023/02/05 07:46:01;;;;;;;8.38;6.63;;;;;;;3.65;92.66;99937.06;4155741;28;20219;-87
2023/02/05 07:48:04;;;;;;;7.90;6.35;;;;;;;3.70;91.69;99950.75;4159628;28;20205;-87
2023/02/05 07:50:08;;;;;;;10.27;7.80;;;;;;;3.72;92.71;99949.88;4143418;28;20273;-87
2023/02/05 07:52:11;;;;;;;14.00;12.70;;;;;;;3.72;92.13;99950.72;4140126;28;20687;-87
2023/02/05 07:54:14;;;;;;;12.98;10.85;;;;;;;3.75;91.54;99952.44;4159672;28;20226;-89
2023/02/05 07:56:20;;;;;;;11.75;9.40;;;;;;;3.76;91.97;99956.72;4152438;28;20650;-86
2023/02/05 07:58:24;;;;;;;9.07;7.75;;;;;;;3.76;91.50;99957.56;4156727;28;20210;-86
2023/02/05 08:00:27;;;;;;;11.18;7.32;;;;;;;3.80;91.49;99948.06;4157777;28;20203;-86
2023/02/05 08:02:30;;;;;;;11.00;8.65;;;;;;;3.82;91.36;99944.59;4142713;28;20243;-86
2023/02/05 08:04:33;;;;;;;8.77;7.47;;;;;;;3.86;91.85;99940.25;4138873;28;20274;-87
2023/02/05 08:06:37;;;;;;;10.85;9.68;;;;;;;3.89;91.85;99947.94;4169966;28;20703;-86
2023/02/05 08:08:40;;;;;;;9.55;8.65;;;;;;;3.92;91.35;99942.75;4171872;28;20682;-88
2023/02/05 08:10:43;;;;;;;9.32;8.35;;;;;;;3.93;92.27;99935.00;4153133;28;20215;-88
2023/02/05 08:12:46;;;;;;;12.00;9.20;;;;;;;3.95;91.60;99933.22;4172408;28;20229;-88
2023/02/05 08:14:51;;;;;;;10.82;9.13;;;;;;;3.97;92.12;99941.84;4154987;28;20260;-88
2023/02/05 08:16:54;;;;;;;9.25;8.30;;;;;;;3.98;92.18;99945.25;4171706;28;20221;-88
2023/02/05 08:18:57;;;;;;;10.43;8.00;;;;;;;4.00;92.72;99944.38;4140050;28;20202;-88
2023/02/05 08:21:00;;;;;;;14.68;12.10;;;;;;;4.05;92.50;99944.31;4176024;28;24858;-88
2023/02/05 08:23:04;;;;;;;12.82;11.25;;;;;;;4.08;91.39;99942.53;4159630;28;20202;-88
2023/02/05 08:25:11;;;;;;;10.90;9.00;;;;;;;4.11;92.31;99936.50;4178500;28;20896;-89
2023/02/05 08:27:14;;;;;;;12.18;8.32;;;;;;;4.11;91.32;99934.75;4154297;28;20253;-88
2023/02/05 08:29:17;;;;;;;9.10;8.00;;;;;;;4.13;91.35;99935.56;4157132;28;20221;-88
2023/02/05 08:31:22;;;;;;;11.13;9.35;;;;;;;4.15;92.26;99936.44;4158788;28;20211;-88
2023/02/05 08:33:25;;;;;;;10.68;8.88;;;;;;;4.18;91.09;99928.66;4175827;28;20649;-88
2023/02/05 08:35:28;;;;;;;9.05;8.07;;;;;;;4.21;91.75;99932.03;4152152;28;24287;-89
2023/02/05 08:37:31;;;;;;;11.20;7.68;;;;;;;4.24;91.40;99926.81;4168241;28;20214;-89
2023/02/05 08:39:35;;;;;;;7.63;6.82;;;;;;;4.20;91.18;99923.47;4140657;28;20200;-91
2023/02/05 08:41:38;;;;;;;10.18;7.70;;;;;;;4.21;90.27;99924.28;4137318;28;20254;-87
2023/02/05 08:43:41;;;;;;;7.95;6.88;;;;;;;4.18;90.75;99926.06;4159879;28;20218;-89
2023/02/05 08:45:46;;;;;;;8.60;7.47;;;;;;;4.19;91.23;99920.00;4173835;28;20225;-86
2023/02/05 08:47:51;;;;;;;12.30;7.05;;;;;;;4.21;91.66;99907.94;4143404;28;20203;-87
2023/02/05 08:49:54;;;;;;;7.65;6.90;;;;;;;4.24;91.32;99907.91;4143253;28;20216;-87
2023/02/05 08:51:57;;;;;;;9.57;7.72;;;;;;;4.23;90.79;99909.63;4156747;28;20216;-87
2023/02/05 08:54:00;;;;;;;9.20;7.53;;;;;;;4.24;91.50;99898.44;4156164;28;20203;-86
2023/02/05 08:56:05;;;;;;;10.27;7.38;;;;;;;4.28;91.29;99902.69;4158267;28;20581;-87
2023/02/05 08:58:08;;;;;;;19.08;10.73;;;;;;;4.33;91.10;99887.97;4167815;28;20237;-86
2023/02/05 09:00:12;;;;;;;13.73;10.15;;;;;;;4.38;91.78;99886.16;4151716;28;20239;-87
2023/02/05 09:02:17;;;;;;;15.98;11.25;;;;;;;4.43;91.51;99886.94;4141074;28;20302;-85
2023/02/05 09:04:22;;;;;;;18.13;11.20;;;;;;;4.47;92.62;99883.44;4154611;28;20237;-85
2023/02/05 09:06:25;;;;;;;15.43;12.73;;;;;;;4.51;91.56;99879.94;4167150;28;21696;-86
2023/02/05 09:08:28;;;;;;;17.08;11.65;;;;;;;4.59;91.12;99883.25;4170604;28;20211;-85
2023/02/05 09:10:33;;;;;;;14.30;11.75;;;;;;;4.63;91.70;99876.28;4173798;28;20214;-86
2023/02/05 09:12:36;;;;;;;14.32;11.27;;;;;;;4.68;91.82;99875.34;4156386;28;20318;-86
2023/02/05 09:14:40;;;;;;;13.45;10.55;;;;;;;4.71;90.42;99875.28;4134280;28;20227;-86
2023/02/05 09:16:43;;;;;;;10.85;8.70;;;;;;;4.68;90.80;99868.44;4166834;28;20206;-85
2023/02/05 09:18:46;;;;;;;12.70;9.25;;;;;;;4.70;90.92;99873.56;4166888;28;20687;-85
2023/02/05 09:20:52;;;;;;;12.82;9.18;;;;;;;4.74;91.10;99864.91;4152259;28;20227;-85
2023/02/05 09:22:56;;;;;;;11.10;9.98;;;;;;;4.72;91.29;99871.81;4137275;28;20217;-86
2023/02/05 09:24:59;;;;;;;14.70;9.93;;;;;;;4.75;91.33;99879.50;4156137;28;20850;-85
2023/02/05 09:27:03;;;;;;;11.25;9.30;;;;;;;4.78;91.13;99880.34;4155129;28;20309;-85
2023/02/05 09:29:08;;;;;;;11.88;9.57;;;;;;;4.80;90.74;99875.13;4172264;28;20305;-85
2023/02/05 09:31:13;;;;;;;10.60;8.82;;;;;;;4.82;91.33;99878.53;4154444;28;20208;-85
2023/02/05 09:33:16;;;;;;;12.80;11.50;;;;;;;4.77;90.03;99868.28;4165238;28;20317;-86
2023/02/05 09:35:19;;;;;;;10.85;8.65;;;;;;;4.78;90.81;99858.78;4160588;28;20227;-85
2023/02/05 09:37:24;;;;;;;10.40;8.93;;;;;;;4.77;90.60;99857.09;4156680;28;20211;-86
2023/02/05 09:39:27;;;;;;;10.43;9.18;;;;;;;4.79;90.55;99857.91;4175879;28;20227;-86
2023/02/05 09:41:55;;;;;;;9.85;8.77;;;;;;;4.83;90.98;99862.16;4137980;28;20310;-85
2023/02/05 09:44:02;;;;;;;10.10;8.15;;;;;;;4.86;91.63;99849.19;4171901;28;20244;-85
2023/02/05 09:46:10;;;;;;;10.60;9.00;;;;;;;4.87;92.14;99850.88;4166970;28;20298;-85
2023/02/05 09:48:48;;;;;;;10.20;9.10;;;;;;;4.89;92.14;99846.56;4171668;28;20218;-86
2023/02/05 09:50:52;;;;;;;10.65;9.00;;;;;;;4.92;92.45;99849.09;4170600;28;20205;-85
2023/02/05 09:52:59;;;;;;;13.10;10.00;;;;;;;4.96;92.00;99849.00;4176822;28;20205;-86